createdAt,value
2019-05-25T00:04:54.660Z,7.50
2019-05-25T00:10:16.654Z,7.97
2019-05-25T00:15:38.064Z,8.35
2019-05-25T00:20:59.798Z,8.03
2019-05-25T00:26:21.527Z,8.58
2019-05-25T00:31:43.118Z,9.23
2019-05-25T00:37:04.751Z,8.30
2019-05-25T00:42:26.707Z,9.13
2019-05-25T00:47:48.649Z,8.95
2019-05-25T00:53:10.407Z,9.08
2019-05-25T00:58:32.453Z,8.35
2019-05-25T01:03:54.256Z,7.67
2019-05-25T01:09:15.577Z,8.43
2019-05-25T01:14:37.312Z,8.55
2019-05-25T01:19:58.763Z,8.00
2019-05-25T01:25:20.869Z,8.75
2019-05-25T01:30:42.737Z,8.13
2019-05-25T01:36:04.105Z,7.80
2019-05-25T01:41:25.793Z,7.70
2019-05-25T01:46:47.634Z,7.47
2019-05-25T01:52:09.148Z,8.10
2019-05-25T01:57:31.034Z,7.78
2019-05-25T02:02:52.551Z,8.05
2019-05-25T02:08:14.133Z,8.00
2019-05-25T02:13:35.544Z,7.72
2019-05-25T02:18:57.080Z,7.83
2019-05-25T02:24:18.661Z,7.92
2019-05-25T02:29:40.297Z,7.40
2019-05-25T02:35:02.301Z,7.50
2019-05-25T02:40:24.673Z,6.50
2019-05-25T02:45:46.506Z,7.17
2019-05-25T02:51:09.997Z,7.55
2019-05-25T02:56:31.898Z,7.75
2019-05-25T03:01:53.700Z,7.12
2019-05-25T03:07:15.465Z,7.25
2019-05-25T03:12:38.115Z,7.03
2019-05-25T03:17:59.846Z,7.60
2019-05-25T03:23:21.647Z,7.62
2019-05-25T03:28:43.510Z,8.23
2019-05-25T03:34:04.980Z,7.72
2019-05-25T03:39:26.741Z,7.90
2019-05-25T03:44:48.794Z,8.78
2019-05-25T03:50:10.688Z,7.65
2019-05-25T03:55:32.270Z,8.05
2019-05-25T04:00:53.806Z,7.50
2019-05-25T04:06:15.342Z,7.42
2019-05-25T04:11:36.988Z,6.97
2019-05-25T04:16:58.729Z,7.00
2019-05-25T04:22:20.257Z,6.78
2019-05-25T04:27:41.894Z,6.67
2019-05-25T04:33:03.548Z,6.87
2019-05-25T04:38:24.989Z,6.83
2019-05-25T04:43:46.833Z,7.35
2019-05-25T04:49:08.785Z,7.20
2019-05-25T04:54:30.339Z,7.70
2019-05-25T04:59:52.023Z,7.62
2019-05-25T05:05:14.302Z,7.25
2019-05-25T05:10:35.964Z,7.37
2019-05-25T05:15:57.511Z,7.30
2019-05-25T05:21:19.055Z,7.30
2019-05-25T05:26:54.764Z,6.80
2019-05-25T05:32:04.695Z,6.70
2019-05-25T05:37:26.755Z,6.60
2019-05-25T05:42:51.165Z,6.33
2019-05-25T05:48:13.501Z,6.78
2019-05-25T05:53:38.098Z,6.50
2019-05-25T05:58:59.712Z,6.85
2019-05-25T06:04:22.020Z,7.40
2019-05-25T06:09:44.076Z,6.42
2019-05-25T06:15:05.819Z,6.55
2019-05-25T06:20:28.018Z,7.33
2019-05-25T06:25:57.347Z,7.08
2019-05-25T06:31:19.395Z,6.55
2019-05-25T06:36:41.290Z,6.80
2019-05-25T06:42:03.021Z,5.95
2019-05-25T06:47:24.839Z,6.10
2019-05-25T06:52:46.802Z,5.90
2019-05-25T06:58:08.482Z,5.90
2019-05-25T07:03:30.439Z,5.75
2019-05-25T07:08:52.085Z,5.62
2019-05-25T07:14:14.004Z,5.60
2019-05-25T07:19:36.410Z,5.20
2019-05-25T07:24:58.224Z,5.10
2019-05-25T07:30:20.106Z,5.60
2019-05-25T07:35:41.899Z,5.50
2019-05-25T07:41:03.460Z,5.90
2019-05-25T07:46:25.400Z,5.10
2019-05-25T07:51:47.220Z,5.40
2019-05-25T07:57:09.387Z,5.33
2019-05-25T08:02:31.382Z,4.55
2019-05-25T08:07:53.214Z,4.65
2019-05-25T08:13:15.446Z,5.00
2019-05-25T08:18:36.986Z,4.53
2019-05-25T08:23:58.506Z,4.00
2019-05-25T08:29:19.725Z,4.22
2019-05-25T08:34:41.477Z,4.10
2019-05-25T08:40:03.318Z,4.45
2019-05-25T08:45:30.561Z,3.80
2019-05-25T08:50:52.847Z,3.92
2019-05-25T08:56:14.857Z,3.90
2019-05-25T09:01:36.235Z,4.08
2019-05-25T09:06:58.122Z,4.00
2019-05-25T09:12:19.775Z,3.95
2019-05-25T09:17:45.547Z,3.52
2019-05-25T09:23:06.880Z,3.70
2019-05-25T09:28:28.738Z,3.40
2019-05-25T09:33:50.406Z,3.87
2019-05-25T09:39:12.412Z,3.60
2019-05-25T09:44:34.310Z,3.62
2019-05-25T09:49:56.203Z,3.37
2019-05-25T09:55:17.937Z,3.80
2019-05-25T10:00:40.242Z,2.98
2019-05-25T10:06:10.800Z,3.20
2019-05-25T10:11:26.505Z,3.55
2019-05-25T10:16:48.147Z,2.95
2019-05-25T10:22:09.705Z,3.17
2019-05-25T10:27:34.089Z,3.25
2019-05-25T10:32:54.979Z,3.35
2019-05-25T10:38:16.338Z,3.17
2019-05-25T10:43:38.129Z,3.50
2019-05-25T10:49:00.073Z,3.50
2019-05-25T10:54:21.665Z,3.30
2019-05-25T10:59:52.481Z,3.00
2019-05-25T11:05:07.937Z,3.35
2019-05-25T11:10:29.940Z,2.35
2019-05-25T11:15:51.626Z,2.58
2019-05-25T11:21:13.335Z,2.50
2019-05-25T11:26:34.858Z,2.83
2019-05-25T11:32:01.163Z,2.50
2019-05-25T11:37:20.428Z,2.70
2019-05-25T11:42:42.358Z,2.50
2019-05-25T11:48:04.486Z,2.60
2019-05-25T11:53:28.383Z,3.00
2019-05-25T11:58:50.540Z,2.70
2019-05-25T12:04:12.405Z,3.10
2019-05-25T12:09:34.421Z,2.95
2019-05-25T12:14:56.296Z,3.10
2019-05-25T12:20:18.263Z,3.15
2019-05-25T12:25:41.645Z,2.98
2019-05-25T12:31:03.470Z,2.95
2019-05-25T12:36:25.252Z,3.17
2019-05-25T12:41:47.261Z,2.90
2019-05-25T12:47:09.239Z,3.10
2019-05-25T12:52:31.065Z,3.75
2019-05-25T12:57:52.919Z,3.83
2019-05-25T13:03:15.109Z,2.95
2019-05-25T13:08:37.096Z,3.30
2019-05-25T13:14:06.326Z,3.62
2019-05-25T13:19:22.112Z,4.05
2019-05-25T13:24:44.106Z,3.92
2019-05-25T13:30:06.142Z,3.90
2019-05-25T13:35:27.634Z,3.85
2019-05-25T13:40:49.132Z,3.45
2019-05-25T13:46:11.055Z,3.98
2019-05-25T13:51:32.907Z,3.30
2019-05-25T13:56:54.789Z,2.90
2019-05-25T14:02:16.270Z,2.77
2019-05-25T14:07:37.959Z,3.45
2019-05-25T14:12:59.233Z,3.45
2019-05-25T14:18:22.160Z,3.30
2019-05-25T14:23:44.300Z,3.25
2019-05-25T14:29:06.858Z,3.15
2019-05-25T14:34:29.434Z,3.20
2019-05-25T14:39:51.695Z,3.10
2019-05-25T14:45:13.976Z,3.40
2019-05-25T14:50:35.599Z,1.87
2019-05-25T14:55:57.428Z,3.10
2019-05-25T15:01:19.189Z,3.40
2019-05-25T15:06:41.014Z,2.70
2019-05-25T15:12:04.335Z,2.90
2019-05-25T15:17:26.638Z,2.60
2019-05-25T15:22:48.718Z,2.20
2019-05-25T15:28:10.286Z,2.22
2019-05-25T15:33:32.197Z,2.00
2019-05-25T15:38:53.987Z,2.20
2019-05-25T15:44:16.238Z,1.85
2019-05-25T15:49:37.867Z,2.00
2019-05-25T15:54:59.439Z,2.22
2019-05-25T16:00:24.890Z,2.40
2019-05-25T16:05:47.727Z,2.50
2019-05-25T16:11:09.351Z,2.75
2019-05-25T16:16:31.058Z,2.85
2019-05-25T16:21:53.127Z,3.02
2019-05-25T16:27:15.292Z,3.00
2019-05-25T16:33:07.055Z,3.37
2019-05-25T16:38:00.771Z,3.75
2019-05-25T16:43:22.584Z,4.40
2019-05-25T16:48:44.836Z,4.95
2019-05-25T16:54:06.949Z,4.30
2019-05-25T16:59:29.184Z,4.30
2019-05-25T17:04:51.090Z,4.67
2019-05-25T17:10:12.840Z,5.42
2019-05-25T17:15:34.690Z,5.00
2019-05-25T17:20:56.873Z,4.75
2019-05-25T17:26:18.620Z,5.08
2019-05-25T17:31:40.840Z,5.30
2019-05-25T17:37:03.206Z,4.87
2019-05-25T17:42:24.841Z,5.17
2019-05-25T17:47:46.588Z,5.47
2019-05-25T17:53:08.213Z,5.17
2019-05-25T17:58:30.071Z,12.93
2019-05-25T18:04:05.528Z,5.62
2019-05-25T18:09:16.008Z,5.47
2019-05-25T18:14:38.101Z,5.22
2019-05-25T18:20:00.083Z,5.12
2019-05-25T18:25:21.760Z,6.70
2019-05-25T18:30:43.789Z,5.65
2019-05-25T18:36:05.654Z,5.20
2019-05-25T18:41:27.711Z,5.70
2019-05-25T18:46:49.617Z,6.22
2019-05-25T18:52:11.374Z,5.37
2019-05-25T18:57:34.309Z,4.83
2019-05-25T19:02:56.100Z,5.40
2019-05-25T19:08:18.065Z,5.47
2019-05-25T19:13:39.726Z,5.42
2019-05-25T19:19:01.121Z,4.92
2019-05-25T19:24:22.998Z,5.55
2019-05-25T19:29:44.605Z,4.67
2019-05-25T19:35:07.065Z,5.85
2019-05-25T19:40:29.165Z,5.35
2019-05-25T19:45:50.931Z,4.65
2019-05-25T19:51:12.742Z,4.97
2019-05-25T19:56:35.221Z,5.00
2019-05-25T20:01:57.095Z,5.15
2019-05-25T20:07:18.991Z,4.85
2019-05-25T20:12:40.594Z,5.10
2019-05-25T20:18:02.194Z,4.42
2019-05-25T20:23:23.918Z,5.30
2019-05-25T20:28:45.772Z,5.60
2019-05-25T20:34:07.777Z,6.08
2019-05-25T20:39:29.538Z,5.05
2019-05-25T20:44:51.116Z,4.83
2019-05-25T20:50:12.765Z,5.53
2019-05-25T20:55:34.298Z,5.42
2019-05-25T21:00:55.665Z,5.70
2019-05-25T21:06:17.730Z,5.42
2019-05-25T21:11:39.668Z,5.05
2019-05-25T21:17:01.319Z,5.62
2019-05-25T21:22:22.707Z,5.55
2019-05-25T21:27:44.706Z,5.90
2019-05-25T21:33:06.088Z,5.72
2019-05-25T21:38:27.836Z,5.72
2019-05-25T21:43:49.681Z,5.87
2019-05-25T21:49:11.490Z,5.78
2019-05-25T21:54:33.200Z,5.92
2019-05-25T21:59:54.928Z,5.97
2019-05-25T22:05:16.351Z,6.30
2019-05-25T22:10:38.261Z,6.90
2019-05-25T22:16:00.138Z,6.42
2019-05-25T22:21:21.596Z,6.45
2019-05-25T22:26:43.355Z,6.90
2019-05-25T22:32:04.854Z,6.92
2019-05-25T22:37:26.711Z,7.15
2019-05-25T22:42:48.307Z,6.95
2019-05-25T22:48:10.146Z,7.28
2019-05-25T22:53:32.234Z,7.12
2019-05-25T22:58:54.318Z,7.45
2019-05-25T23:04:16.335Z,7.65
2019-05-25T23:09:38.539Z,7.30
2019-05-25T23:15:00.681Z,7.53
2019-05-25T23:20:21.961Z,7.33
2019-05-25T23:25:43.552Z,7.87
2019-05-25T23:31:05.085Z,8.20
2019-05-25T23:36:26.900Z,7.83
2019-05-25T23:41:48.434Z,8.23
2019-05-25T23:47:09.801Z,8.90
2019-05-25T23:52:31.755Z,7.90
2019-05-25T23:57:53.311Z,7.97
